Terminal Aerodrome Forecast
Issued by NWS

Home | Current Version | Previous Version | Graphics & Text | Print | Product List | Glossary On
Versions: 1 2 3 4 5 6 7 8 9 10 11 12 13 14 15 16 17 18 19
773
FTUS43 KABR 211140
TAFMBG
TAF
KMBG 211140Z 2112/2212 14016G23KT P6SM BKN040
     FM211600 15022G32KT P6SM OVC030
     FM211900 15022G33KT P6SM BKN040
     FM220200 15017KT P6SM OVC025=

USA.gov is the U.S. government's official web portal to all federal, state and local government web resources and services.